Time;durP1;ratioP1;P1;durP2;ratioP2;P2;SDS_P1;SDS_P2;PMS_P1;PMS_P2;Temp;Humidity;BMP_temperature;BMP_pressure;BME280_temperature;BME280_humidity;BME280_pressure;Samples;Min_cycle;Max_cycle;Signal;HPM_P1;HPM_P2
2023/07/01 00:01:38;;;;;;;0.90;0.90;;;;;;;;;;7396343;19;20731;-91
2023/07/01 00:04:06;;;;;;;0.63;0.63;;;;;;;;;;7392732;19;20137;-92
2023/07/01 00:06:33;;;;;;;4.18;1.08;;;;;;;;;;7394422;19;20141;-92
2023/07/01 00:08:59;;;;;;;0.43;0.43;;;;;;;;;;7394421;19;20137;-93
2023/07/01 00:11:28;;;;;;;0.60;0.60;;;;;;;;;;7396935;19;20142;-92
2023/07/01 00:13:55;;;;;;;1.05;1.00;;;;;;;;;;7393832;19;20125;-91
2023/07/01 00:16:22;;;;;;;0.75;0.75;;;;;;;;;;7394912;19;20176;-92
2023/07/01 00:18:49;;;;;;;0.93;0.93;;;;;;;;;;7395899;19;20150;-92
2023/07/01 00:21:15;;;;;;;2.42;1.40;;;;;;;;;;7397306;19;20130;-91
2023/07/01 00:24:04;;;;;;;0.57;0.57;;;;;;;;;;7394458;19;20149;-93
2023/07/01 00:26:33;;;;;;;0.77;0.77;;;;;;;;;;7392426;19;20164;-93
2023/07/01 00:29:00;;;;;;;0.60;0.60;;;;;;;;;;7394655;19;20147;-93
2023/07/01 00:31:27;;;;;;;1.20;1.20;;;;;;;;;;7396921;19;20141;-93
2023/07/01 00:33:54;;;;;;;0.52;0.52;;;;;;;;;;7397708;19;20177;-92
2023/07/01 00:36:20;;;;;;;0.52;0.52;;;;;;;;;;7407648;19;20173;-92
2023/07/01 00:38:47;;;;;;;0.50;0.50;;;;;;;;;;7408827;19;20129;-92
2023/07/01 00:41:17;;;;;;;0.75;0.75;;;;;;;;;;7410631;19;20137;-92
2023/07/01 00:43:44;;;;;;;0.50;0.50;;;;;;;;;;7409811;19;20149;-92
2023/07/01 00:46:10;;;;;;;2.05;0.70;;;;;;;;;;7407136;19;20216;-90
2023/07/01 00:48:39;;;;;;;0.75;0.75;;;;;;;;;;7409618;19;20143;-91
2023/07/01 00:51:05;;;;;;;4.22;0.60;;;;;;;;;;7400692;19;20145;-93
2023/07/01 00:53:32;;;;;;;0.50;0.50;;;;;;;;;;7389305;19;20136;-93
2023/07/01 00:55:59;;;;;;;2.47;0.68;;;;;;;;;;7391314;19;20175;-93
2023/07/01 00:58:26;;;;;;;1.25;1.15;;;;;;;;;;7392709;19;20150;-93
2023/07/01 01:00:56;;;;;;;0.95;0.95;;;;;;;;;;7391381;19;20129;-92
2023/07/01 01:03:36;;;;;;;0.57;0.57;;;;;;;;;;7392579;19;20633;-92
2023/07/01 01:06:20;;;;;;;0.30;0.30;;;;;;;;;;7391678;19;20161;-91
2023/07/01 01:09:03;;;;;;;0.47;0.47;;;;;;;;;;7401561;19;20148;-93
2023/07/01 01:11:32;;;;;;;0.47;0.47;;;;;;;;;;7395021;19;20141;-93
2023/07/01 01:14:01;;;;;;;0.93;0.93;;;;;;;;;;7394421;19;20140;-93
2023/07/01 01:16:28;;;;;;;2.30;0.90;;;;;;;;;;7399148;19;20145;-92
2023/07/01 01:18:57;;;;;;;0.85;0.75;;;;;;;;;;7398108;19;20145;-93
2023/07/01 01:21:24;;;;;;;0.77;0.77;;;;;;;;;;7395785;19;20585;-93
2023/07/01 01:24:04;;;;;;;0.40;0.40;;;;;;;;;;7396177;19;20162;-92
2023/07/01 01:26:40;;;;;;;0.85;0.60;;;;;;;;;;7399850;19;20192;-93
2023/07/01 01:29:07;;;;;;;0.80;0.80;;;;;;;;;;7420042;19;20152;-93
2023/07/01 01:31:34;;;;;;;0.82;0.77;;;;;;;;;;7426605;19;20126;-91
2023/07/01 01:34:01;;;;;;;0.50;0.50;;;;;;;;;;7426545;19;20133;-92
2023/07/01 01:36:43;;;;;;;0.40;0.40;;;;;;;;;;7425198;19;20626;-92
2023/07/01 01:39:11;;;;;;;0.45;0.45;;;;;;;;;;7427660;19;20125;-93
2023/07/01 01:41:53;;;;;;;0.40;0.40;;;;;;;;;;7426541;19;20129;-92
2023/07/01 01:44:36;;;;;;;1.10;0.50;;;;;;;;;;7423909;19;20161;-92
2023/07/01 01:47:03;;;;;;;1.33;0.63;;;;;;;;;;7423431;19;20137;-92
2023/07/01 01:49:30;;;;;;;0.88;0.68;;;;;;;;;;7424459;19;20125;-92
2023/07/01 01:51:57;;;;;;;0.63;0.63;;;;;;;;;;7414172;19;20610;-93
2023/07/01 01:54:24;;;;;;;0.55;0.55;;;;;;;;;;7391808;19;20133;-92
2023/07/01 01:56:51;;;;;;;0.60;0.60;;;;;;;;;;7393485;19;20212;-92
2023/07/01 01:59:18;;;;;;;0.68;0.68;;;;;;;;;;7391059;19;20126;-93
2023/07/01 02:01:45;;;;;;;0.77;0.77;;;;;;;;;;7392709;19;20139;-93
2023/07/01 02:04:12;;;;;;;0.70;0.70;;;;;;;;;;7389486;19;20502;-92
2023/07/01 02:06:39;;;;;;;0.57;0.57;;;;;;;;;;7399384;19;20479;-92
2023/07/01 02:09:05;;;;;;;0.47;0.47;;;;;;;;;;7399641;19;20474;-91
2023/07/01 02:11:32;;;;;;;0.40;0.40;;;;;;;;;;7398480;19;20137;-90
2023/07/01 02:13:59;;;;;;;0.30;0.30;;;;;;;;;;7395433;19;20677;-90
2023/07/01 02:16:27;;;;;;;1.20;0.95;;;;;;;;;;7396250;19;20168;-90
2023/07/01 02:18:53;;;;;;;0.80;0.80;;;;;;;;;;7399903;19;20649;-91
2023/07/01 02:21:20;;;;;;;1.85;1.20;;;;;;;;;;7399373;19;20148;-91
2023/07/01 02:23:47;;;;;;;0.65;0.65;;;;;;;;;;7397495;19;20502;-90
2023/07/01 02:26:13;;;;;;;1.17;1.08;;;;;;;;;;7397988;19;20144;-90
2023/07/01 02:28:40;;;;;;;0.50;0.50;;;;;;;;;;7401923;19;20121;-90
2023/07/01 02:31:07;;;;;;;0.50;0.50;;;;;;;;;;7398929;19;20155;-90
2023/07/01 02:33:34;;;;;;;0.60;0.60;;;;;;;;;;7397244;19;20168;-89
2023/07/01 02:36:00;;;;;;;1.35;1.25;;;;;;;;;;7390416;19;20637;-89
2023/07/01 02:38:27;;;;;;;0.38;0.38;;;;;;;;;;7399115;19;20147;-89
2023/07/01 02:40:54;;;;;;;1.00;0.98;;;;;;;;;;7402911;19;20146;-88
2023/07/01 02:43:20;;;;;;;0.60;0.60;;;;;;;;;;7400743;19;20129;-89
2023/07/01 02:45:47;;;;;;;0.50;0.50;;;;;;;;;;7398703;19;20152;-89
2023/07/01 02:48:14;;;;;;;0.82;0.82;;;;;;;;;;7398870;19;20181;-89
2023/07/01 02:50:40;;;;;;;1.05;0.63;;;;;;;;;;7400007;19;20551;-88
2023/07/01 02:53:07;;;;;;;0.80;0.80;;;;;;;;;;7401120;19;20147;-88
2023/07/01 02:55:35;;;;;;;0.60;0.60;;;;;;;;;;7400229;19;20208;-89
2023/07/01 02:58:02;;;;;;;0.43;0.43;;;;;;;;;;7398303;19;20192;-91
2023/07/01 03:00:29;;;;;;;0.30;0.30;;;;;;;;;;7399783;19;20133;-90
2023/07/01 03:03:05;;;;;;;0.40;0.40;;;;;;;;;;7399366;19;20129;-90
2023/07/01 03:05:34;;;;;;;0.40;0.40;;;;;;;;;;7396548;19;20161;-90
2023/07/01 03:08:01;;;;;;;0.40;0.40;;;;;;;;;;7396065;19;20141;-91
2023/07/01 03:10:27;;;;;;;0.85;0.85;;;;;;;;;;7394622;19;20133;-91
2023/07/01 03:12:54;;;;;;;0.57;0.57;;;;;;;;;;7396975;19;20141;-90
2023/07/01 03:15:21;;;;;;;0.30;0.30;;;;;;;;;;7397375;19;20217;-90
2023/07/01 03:17:48;;;;;;;0.57;0.57;;;;;;;;;;7398043;19;20542;-91
2023/07/01 03:20:24;;;;;;;0.45;0.45;;;;;;;;;;7398162;19;20141;-90
2023/07/01 03:22:57;;;;;;;0.55;0.55;;;;;;;;;;7397241;19;20140;-89
2023/07/01 03:25:25;;;;;;;0.77;0.77;;;;;;;;;;7397207;19;20594;-87
2023/07/01 03:27:52;;;;;;;0.32;0.32;;;;;;;;;;7401940;19;20164;-88
2023/07/01 03:30:22;;;;;;;0.80;0.80;;;;;;;;;;7402837;19;20125;-89
2023/07/01 03:32:48;;;;;;;0.60;0.60;;;;;;;;;;7404790;19;20132;-89
2023/07/01 03:35:16;;;;;;;1.20;1.10;;;;;;;;;;7402221;19;20157;-89
2023/07/01 03:37:43;;;;;;;0.70;0.70;;;;;;;;;;7400377;19;20141;-88
2023/07/01 03:40:10;;;;;;;0.95;0.60;;;;;;;;;;7404148;19;20137;-89
2023/07/01 03:42:38;;;;;;;0.60;0.60;;;;;;;;;;7404053;19;20181;-88
2023/07/01 03:45:07;;;;;;;0.95;0.60;;;;;;;;;;7401357;19;20639;-89
2023/07/01 03:47:34;;;;;;;0.43;0.43;;;;;;;;;;7402976;19;20569;-90
2023/07/01 03:50:01;;;;;;;0.55;0.55;;;;;;;;;;7401910;19;20144;-89
2023/07/01 03:52:28;;;;;;;0.52;0.52;;;;;;;;;;7404207;19;20212;-88
2023/07/01 03:54:56;;;;;;;0.80;0.80;;;;;;;;;;7403015;19;20168;-89
2023/07/01 03:57:22;;;;;;;0.80;0.73;;;;;;;;;;7404312;19;20221;-90
2023/07/01 03:59:49;;;;;;;0.70;0.70;;;;;;;;;;7400394;19;20224;-90
2023/07/01 04:02:16;;;;;;;0.73;0.50;;;;;;;;;;7397690;19;20137;-90
2023/07/01 04:04:42;;;;;;;0.73;0.70;;;;;;;;;;7395584;19;20220;-90
2023/07/01 04:07:09;;;;;;;0.38;0.38;;;;;;;;;;7397999;19;20148;-90
2023/07/01 04:09:39;;;;;;;0.50;0.50;;;;;;;;;;7397208;19;20181;-89
2023/07/01 04:16:04;;;;;;;0.30;0.30;;;;;;;;;;7396805;19;20135;-88
2023/07/01 04:29:12;;;;;;;0.50;0.50;;;;;;;;;;7391508;19;20572;-89
2023/07/01 04:31:39;;;;;;;0.32;0.32;;;;;;;;;;7390167;19;20513;-88
2023/07/01 04:34:12;;;;;;;0.60;0.60;;;;;;;;;;7394060;19;20143;-89
2023/07/01 04:37:01;;;;;;;0.65;0.65;;;;;;;;;;7398127;19;20642;-89
2023/07/01 04:39:45;;;;;;;;;;;;;;;;;;;;;
2023/07/01 04:42:34;;;;;;;0.40;0.40;;;;;;;;;;7396812;19;20132;-89
2023/07/01 04:45:46;;;;;;;0.40;0.40;;;;;;;;;;7396698;19;20156;-90
2023/07/01 04:49:18;;;;;;;0.50;0.50;;;;;;;;;;7399234;19;20168;-89
2023/07/01 06:30:17;;;;;;;0.50;0.50;;;;;;;;;;7392201;19;20516;-90
2023/07/01 06:32:44;;;;;;;0.43;0.43;;;;;;;;;;7388810;19;20224;-93
2023/07/01 06:35:11;;;;;;;0.45;0.45;;;;;;;;;;7383726;19;20169;-91
2023/07/01 06:38:07;;;;;;;0.30;0.30;;;;;;;;;;7385008;19;20157;-91
2023/07/01 06:40:34;;;;;;;0.50;0.50;;;;;;;;;;7386948;19;20154;-90
2023/07/01 06:44:02;;;;;;;0.60;0.60;;;;;;;;;;7389555;19;20133;-87
2023/07/01 06:47:29;;;;;;;0.50;0.50;;;;;;;;;;7393338;19;20625;-89
2023/07/01 06:50:02;;;;;;;0.40;0.40;;;;;;;;;;7389953;19;20192;-88
2023/07/01 06:52:29;;;;;;;0.77;0.77;;;;;;;;;;7390669;19;20140;-89
2023/07/01 06:54:55;;;;;;;0.38;0.38;;;;;;;;;;7396555;19;20586;-88
2023/07/01 06:57:22;;;;;;;0.60;0.60;;;;;;;;;;7398028;19;20180;-87
2023/07/01 06:59:49;;;;;;;0.50;0.50;;;;;;;;;;7401384;19;20162;-91
2023/07/01 07:02:16;;;;;;;0.60;0.60;;;;;;;;;;7396369;19;20528;-89
2023/07/01 07:04:43;;;;;;;0.40;0.40;;;;;;;;;;7391795;19;20164;-89
2023/07/01 07:07:09;;;;;;;0.50;0.50;;;;;;;;;;7396419;19;20127;-90
2023/07/01 07:09:36;;;;;;;0.95;0.95;;;;;;;;;;7394893;19;20141;-90
2023/07/01 07:12:03;;;;;;;0.45;0.45;;;;;;;;;;7396184;19;20529;-91
2023/07/01 07:14:30;;;;;;;0.57;0.52;;;;;;;;;;7414006;19;20152;-89
2023/07/01 07:16:56;;;;;;;0.40;0.40;;;;;;;;;;7394621;19;20137;-91
2023/07/01 07:19:23;;;;;;;0.40;0.40;;;;;;;;;;7393257;19;20629;-88
2023/07/01 07:21:52;;;;;;;0.50;0.50;;;;;;;;;;7394636;19;20129;-91
2023/07/01 07:24:19;;;;;;;0.50;0.50;;;;;;;;;;7391836;19;20152;-90
2023/07/01 07:27:02;;;;;;;0.40;0.40;;;;;;;;;;7390827;19;20137;-90
2023/07/01 07:29:33;;;;;;;0.60;0.60;;;;;;;;;;7389703;19;20167;-91
2023/07/01 07:32:00;;;;;;;0.57;0.57;;;;;;;;;;7392330;19;20137;-89
2023/07/01 07:34:26;;;;;;;0.40;0.40;;;;;;;;;;7393719;19;20137;-88
2023/07/01 07:36:53;;;;;;;0.60;0.60;;;;;;;;;;7394511;19;20137;-88
2023/07/01 07:39:20;;;;;;;0.50;0.50;;;;;;;;;;7392299;19;20143;-90
2023/07/01 07:41:47;;;;;;;0.30;0.30;;;;;;;;;;7394121;19;20151;-89
2023/07/01 07:44:13;;;;;;;0.55;0.55;;;;;;;;;;7391477;19;20141;-89
2023/07/01 07:46:42;;;;;;;0.47;0.47;;;;;;;;;;7392648;19;20133;-90
2023/07/01 07:49:08;;;;;;;0.50;0.50;;;;;;;;;;7391519;19;20141;-91
2023/07/01 07:51:35;;;;;;;0.40;0.40;;;;;;;;;;7395300;19;20137;-92
2023/07/01 07:54:06;;;;;;;0.50;0.50;;;;;;;;;;7395670;19;20125;-90
2023/07/01 07:56:33;;;;;;;0.68;0.68;;;;;;;;;;7393870;19;20176;-90
2023/07/01 07:58:59;;;;;;;0.73;0.73;;;;;;;;;;7395660;19;20526;-89
2023/07/01 08:01:26;;;;;;;0.57;0.57;;;;;;;;;;7396842;19;20147;-89
2023/07/01 08:03:53;;;;;;;0.45;0.45;;;;;;;;;;7388964;19;20137;-88
2023/07/01 08:06:19;;;;;;;0.80;0.80;;;;;;;;;;7389307;19;20169;-90
2023/07/01 08:08:46;;;;;;;0.50;0.50;;;;;;;;;;7391450;19;20125;-89
2023/07/01 08:11:13;;;;;;;0.50;0.50;;;;;;;;;;7389474;19;20144;-87
2023/07/01 08:13:40;;;;;;;0.57;0.57;;;;;;;;;;7394787;19;20139;-89
2023/07/01 08:16:07;;;;;;;0.30;0.30;;;;;;;;;;7381976;19;20165;-89
2023/07/01 08:18:35;;;;;;;0.45;0.45;;;;;;;;;;7387365;19;20628;-89
2023/07/01 08:21:05;;;;;;;0.55;0.55;;;;;;;;;;7378698;19;20137;-87
2023/07/01 08:23:42;;;;;;;0.45;0.45;;;;;;;;;;7385820;19;20169;-86
2023/07/01 08:26:43;;;;;;;0.43;0.43;;;;;;;;;;7386025;19;20528;-86
2023/07/01 08:29:35;;;;;;;0.50;0.50;;;;;;;;;;7388645;19;20149;-87
2023/07/01 08:32:46;;;;;;;0.38;0.38;;;;;;;;;;7388901;19;20161;-87
2023/07/01 08:35:21;;;;;;;0.47;0.47;;;;;;;;;;7388418;19;20172;-88
2023/07/01 08:38:17;;;;;;;0.60;0.60;;;;;;;;;;7386297;19;20145;-88
2023/07/01 08:41:09;;;;;;;0.82;0.65;;;;;;;;;;7384068;19;20796;-89
2023/07/01 08:43:52;;;;;;;;;;;;;;;;;;;;;
2023/07/01 08:46:23;;;;;;;1.02;0.73;;;;;;;;;;7391908;19;20164;-87
2023/07/01 08:48:56;;;;;;;0.40;0.40;;;;;;;;;;7392341;19;20158;-88
2023/07/01 08:51:31;;;;;;;0.70;0.70;;;;;;;;;;7393276;19;20611;-88
2023/07/01 08:54:00;;;;;;;0.50;0.50;;;;;;;;;;7386732;19;20208;-87
2023/07/01 08:56:27;;;;;;;0.55;0.55;;;;;;;;;;7381832;19;20188;-88
2023/07/01 08:58:53;;;;;;;1.00;1.00;;;;;;;;;;7393790;19;20171;-88
2023/07/01 09:01:20;;;;;;;0.55;0.55;;;;;;;;;;7397194;19;20602;-89
2023/07/01 09:03:48;;;;;;;0.43;0.43;;;;;;;;;;7393676;19;20145;-88
2023/07/01 09:06:15;;;;;;;0.75;0.57;;;;;;;;;;7394655;19;20185;-88
2023/07/01 09:08:41;;;;;;;0.65;0.60;;;;;;;;;;7389423;19;20157;-87
2023/07/01 09:11:14;;;;;;;0.75;0.63;;;;;;;;;;7391142;19;20160;-88
2023/07/01 09:13:42;;;;;;;0.52;0.52;;;;;;;;;;7392196;19;20132;-85
2023/07/01 09:16:09;;;;;;;0.63;0.63;;;;;;;;;;7396017;19;20212;-86
2023/07/01 09:18:36;;;;;;;0.50;0.50;;;;;;;;;;7395789;19;20152;-85
2023/07/01 09:21:16;;;;;;;0.70;0.70;;;;;;;;;;7398370;19;20613;-87
2023/07/01 09:23:45;;;;;;;0.38;0.38;;;;;;;;;;7397577;19;20471;-86
2023/07/01 09:26:14;;;;;;;1.65;0.52;;;;;;;;;;7390149;19;20160;-86
2023/07/01 09:28:55;;;;;;;0.40;0.40;;;;;;;;;;7389829;19;20152;-88
2023/07/01 09:31:22;;;;;;;0.40;0.40;;;;;;;;;;7391185;19;20129;-89
2023/07/01 09:34:05;;;;;;;1.08;1.08;;;;;;;;;;7391441;19;20144;-90
2023/07/01 09:36:38;;;;;;;0.55;0.55;;;;;;;;;;7389993;19;20160;-89
2023/07/01 09:39:05;;;;;;;0.40;0.40;;;;;;;;;;7390715;19;20137;-90
2023/07/01 09:41:32;;;;;;;0.60;0.60;;;;;;;;;;7391256;19;20139;-89
2023/07/01 09:51:03;;;;;;;0.30;0.30;;;;;;;;;;7388548;19;20111;-90
2023/07/01 09:58:02;;;;;;;0.60;0.60;;;;;;;;;;7389297;19;20488;-90
2023/07/01 10:04:28;;;;;;;0.52;0.52;;;;;;;;;;7383595;19;20134;-90
2023/07/01 10:07:04;;;;;;;0.70;0.70;;;;;;;;;;7385925;19;20137;-91
2023/07/01 10:09:35;;;;;;;0.40;0.40;;;;;;;;;;7381195;19;20148;-91
2023/07/01 10:12:04;;;;;;;1.40;0.77;;;;;;;;;;7383475;19;20598;-91
2023/07/01 10:14:36;;;;;;;0.50;0.50;;;;;;;;;;7383525;19;20165;-92
2023/07/01 10:17:05;;;;;;;0.38;0.38;;;;;;;;;;7386414;19;20610;-91
2023/07/01 10:19:35;;;;;;;2.30;0.82;;;;;;;;;;7385996;19;20148;-92
2023/07/01 10:22:26;;;;;;;0.40;0.40;;;;;;;;;;7388943;19;20133;-91
2023/07/01 10:24:57;;;;;;;0.80;0.80;;;;;;;;;;7384352;19;20172;-92
2023/07/01 10:27:46;;;;;;;0.47;0.47;;;;;;;;;;7393199;19;20151;-92
2023/07/01 10:30:19;;;;;;;0.30;0.30;;;;;;;;;;7395115;19;20140;-91
2023/07/01 10:33:35;;;;;;;0.98;0.70;;;;;;;;;;7393850;19;20136;-91
2023/07/01 10:36:07;;;;;;;0.40;0.40;;;;;;;;;;7390222;19;20172;-93
2023/07/01 10:38:38;;;;;;;0.73;0.73;;;;;;;;;;7392121;19;20141;-90
2023/07/01 10:41:06;;;;;;;0.50;0.50;;;;;;;;;;7392466;19;20137;-92
2023/07/01 10:43:34;;;;;;;0.30;0.30;;;;;;;;;;7388322;19;20133;-90
2023/07/01 10:46:04;;;;;;;0.35;0.35;;;;;;;;;;7392014;19;20156;-91
2023/07/01 10:48:31;;;;;;;0.55;0.55;;;;;;;;;;7393816;19;20164;-90
2023/07/01 10:51:05;;;;;;;0.73;0.73;;;;;;;;;;7396130;19;20594;-91
2023/07/01 10:54:02;;;;;;;0.40;0.40;;;;;;;;;;7396210;19;20140;-91
2023/07/01 10:56:33;;;;;;;0.40;0.40;;;;;;;;;;7398801;19;20165;-90
2023/07/01 10:59:22;;;;;;;0.70;0.70;;;;;;;;;;7400056;19;20136;-90
2023/07/01 11:02:52;;;;;;;0.68;0.68;;;;;;;;;;7392212;19;20144;-91
2023/07/01 11:06:00;;;;;;;0.70;0.70;;;;;;;;;;7391625;19;20183;-91
2023/07/01 11:09:04;;;;;;;0.40;0.40;;;;;;;;;;7396304;19;20143;-90
2023/07/01 11:11:57;;;;;;;0.68;0.68;;;;;;;;;;7393090;19;20141;-92
2023/07/01 11:15:14;;;;;;;0.40;0.40;;;;;;;;;;7400062;19;20264;-89
2023/07/01 11:18:08;;;;;;;0.68;0.47;;;;;;;;;;7392759;19;20203;-93
2023/07/01 11:31:54;;;;;;;;;;;;;;;;;;;;;
2023/07/01 11:34:55;;;;;;;0.40;0.40;;;;;;;;;;7389418;19;20173;-90
2023/07/01 11:37:28;;;;;;;0.60;0.60;;;;;;;;;;7389673;19;20141;-90
2023/07/01 11:43:48;;;;;;;0.75;0.75;;;;;;;;;;7395460;19;20599;-91
2023/07/01 11:46:40;;;;;;;0.40;0.40;;;;;;;;;;7395072;19;20525;-90
2023/07/01 11:49:47;;;;;;;0.85;0.65;;;;;;;;;;7394554;19;20641;-90
2023/07/01 11:52:24;;;;;;;0.30;0.30;;;;;;;;;;7392764;19;20149;-92
2023/07/01 11:54:54;;;;;;;0.40;0.40;;;;;;;;;;7393160;19;20169;-88
2023/07/01 11:57:22;;;;;;;0.47;0.47;;;;;;;;;;7395156;19;20226;-90
2023/07/01 12:03:48;;;;;;;0.50;0.50;;;;;;;;;;7392466;19;20228;-94
2023/07/01 12:06:29;;;;;;;0.43;0.43;;;;;;;;;;7394763;19;20172;-93
2023/07/01 12:09:24;;;;;;;0.50;0.50;;;;;;;;;;7395066;19;20638;-91
2023/07/01 12:12:18;;;;;;;6.13;1.30;;;;;;;;;;7391915;19;20170;-91
2023/07/01 12:15:15;;;;;;;0.50;0.50;;;;;;;;;;7397842;19;20137;-92
2023/07/01 12:18:13;;;;;;;0.57;0.57;;;;;;;;;;7393849;19;20137;-92
2023/07/01 12:21:06;;;;;;;0.57;0.57;;;;;;;;;;7396468;19;20132;-92
2023/07/01 12:23:56;;;;;;;0.30;0.30;;;;;;;;;;7394117;19;20595;-91
2023/07/01 12:32:11;;;;;;;0.40;0.40;;;;;;;;;;7401429;19;20129;-89
2023/07/01 12:35:06;;;;;;;0.52;0.52;;;;;;;;;;7393961;19;20181;-92
2023/07/01 12:38:24;;;;;;;0.55;0.55;;;;;;;;;;7393464;19;20145;-94
2023/07/01 12:40:54;;;;;;;0.50;0.50;;;;;;;;;;7393180;19;20393;-93
2023/07/01 12:43:22;;;;;;;0.63;0.63;;;;;;;;;;7402696;19;20133;-89
2023/07/01 12:45:49;;;;;;;0.73;0.73;;;;;;;;;;7404438;19;20160;-90
2023/07/01 12:48:21;;;;;;;0.55;0.55;;;;;;;;;;7399930;19;20682;-91
2023/07/01 12:51:48;;;;;;;;;;;;;;;;;;;;;
2023/07/01 12:54:36;;;;;;;0.38;0.38;;;;;;;;;;7396185;19;20131;-91
2023/07/01 12:57:23;;;;;;;0.40;0.40;;;;;;;;;;7394207;19;20153;-90
2023/07/01 13:00:05;;;;;;;0.60;0.60;;;;;;;;;;7388955;19;20153;-94
2023/07/01 13:02:53;;;;;;;0.40;0.40;;;;;;;;;;7388588;19;20590;-93
2023/07/01 13:05:56;;;;;;;0.93;0.70;;;;;;;;;;7392555;19;20145;-91
2023/07/01 13:08:33;;;;;;;0.35;0.35;;;;;;;;;;7394450;19;20143;-90
2023/07/01 13:11:00;;;;;;;0.75;0.75;;;;;;;;;;7411378;19;20145;-89
2023/07/01 13:13:48;;;;;;;;;;;;;;;;;;;;;
2023/07/01 13:16:32;;;;;;;0.45;0.45;;;;;;;;;;7396577;19;20642;-90
2023/07/01 13:19:15;;;;;;;0.47;0.47;;;;;;;;;;7396115;19;20685;-90
2023/07/01 13:21:46;;;;;;;0.38;0.38;;;;;;;;;;7399185;19;20141;-91
2023/07/01 13:24:16;;;;;;;0.68;0.68;;;;;;;;;;7394900;19;20152;-93
2023/07/01 13:26:47;;;;;;;0.50;0.50;;;;;;;;;;7389987;19;20137;-90
2023/07/01 13:29:17;;;;;;;0.45;0.45;;;;;;;;;;7390336;19;20133;-89
2023/07/01 13:31:50;;;;;;;0.80;0.80;;;;;;;;;;7390582;19;20137;-91
2023/07/01 13:34:18;;;;;;;0.95;0.95;;;;;;;;;;7389754;19;20153;-89
2023/07/01 13:36:50;;;;;;;0.82;0.82;;;;;;;;;;7387647;19;20559;-90
2023/07/01 13:39:41;;;;;;;1.08;0.75;;;;;;;;;;7390116;19;20224;-89
2023/07/01 13:42:31;;;;;;;1.50;1.23;;;;;;;;;;7391010;19;20146;-91
2023/07/01 13:45:10;;;;;;;1.50;0.90;;;;;;;;;;7389450;19;20208;-92
2023/07/01 13:47:47;;;;;;;0.50;0.50;;;;;;;;;;7390157;19;20488;-90
2023/07/01 13:50:19;;;;;;;0.70;0.70;;;;;;;;;;7390207;19;20136;-91
2023/07/01 13:52:47;;;;;;;0.82;0.82;;;;;;;;;;7391065;19;20586;-91
2023/07/01 13:55:17;;;;;;;0.85;0.85;;;;;;;;;;7394087;19;20156;-91
2023/07/01 13:57:49;;;;;;;1.58;1.08;;;;;;;;;;7391574;19;20139;-91
2023/07/01 14:00:25;;;;;;;1.60;1.15;;;;;;;;;;7395491;19;20213;-90
2023/07/01 14:02:52;;;;;;;0.77;0.75;;;;;;;;;;7400966;19;20136;-91
2023/07/01 14:05:23;;;;;;;0.88;0.88;;;;;;;;;;7401965;19;20178;-92
2023/07/01 14:07:57;;;;;;;0.70;0.70;;;;;;;;;;7399103;19;20136;-90
2023/07/01 14:10:30;;;;;;;0.68;0.68;;;;;;;;;;7398353;19;20204;-90
2023/07/01 14:12:57;;;;;;;0.50;0.50;;;;;;;;;;7398446;19;20130;-89
2023/07/01 14:15:43;;;;;;;0.50;0.50;;;;;;;;;;7395878;19;20216;-90
2023/07/01 14:18:19;;;;;;;0.75;0.75;;;;;;;;;;7399178;19;20170;-91
2023/07/01 14:21:40;;;;;;;0.70;0.70;;;;;;;;;;7396341;19;20192;-92
2023/07/01 14:24:33;;;;;;;0.57;0.57;;;;;;;;;;7399095;19;20495;-92
2023/07/01 14:27:27;;;;;;;0.55;0.55;;;;;;;;;;7394761;19;20149;-88
2023/07/01 14:29:56;;;;;;;0.40;0.40;;;;;;;;;;7396344;19;20232;-89
2023/07/01 14:32:23;;;;;;;0.50;0.50;;;;;;;;;;7393602;19;20147;-88
2023/07/01 14:34:50;;;;;;;0.43;0.43;;;;;;;;;;7401255;19;20172;-90
2023/07/01 14:37:17;;;;;;;0.50;0.50;;;;;;;;;;7401971;19;20145;-90
2023/07/01 14:40:37;;;;;;;0.38;0.38;;;;;;;;;;7404355;19;20574;-92
2023/07/01 14:43:21;;;;;;;0.85;0.80;;;;;;;;;;7419750;19;20141;-95
2023/07/01 15:00:11;;;;;;;0.85;0.85;;;;;;;;;;7388829;19;20185;-93
2023/07/01 15:02:39;;;;;;;0.65;0.65;;;;;;;;;;7422172;19;20160;-93
2023/07/01 15:05:07;;;;;;;2.28;0.77;;;;;;;;;;7421973;19;20133;-92
2023/07/01 15:07:34;;;;;;;0.30;0.30;;;;;;;;;;7422285;19;20197;-95
2023/07/01 15:10:06;;;;;;;0.40;0.40;;;;;;;;;;7423725;19;20154;-94
2023/07/01 15:32:02;;;;;;;0.43;0.43;;;;;;;;;;7388938;19;20724;-92
2023/07/01 15:34:29;;;;;;;0.55;0.55;;;;;;;;;;7418948;19;20133;-91
2023/07/01 15:36:56;;;;;;;2.88;0.55;;;;;;;;;;7420939;19;20157;-92
2023/07/01 15:39:23;;;;;;;0.40;0.40;;;;;;;;;;7421024;19;20153;-92
2023/07/01 15:41:54;;;;;;;0.55;0.52;;;;;;;;;;7422802;19;20137;-91
2023/07/01 15:44:22;;;;;;;0.47;0.47;;;;;;;;;;7418814;19;20133;-94
2023/07/01 15:46:50;;;;;;;1.13;0.63;;;;;;;;;;7422265;19;20136;-95
2023/07/01 15:49:17;;;;;;;0.60;0.60;;;;;;;;;;7421220;19;20666;-95
2023/07/01 15:51:43;;;;;;;0.55;0.55;;;;;;;;;;7422200;19;20137;-94
2023/07/01 15:54:12;;;;;;;0.30;0.30;;;;;;;;;;7418477;19;20133;-93
2023/07/01 15:56:43;;;;;;;0.60;0.60;;;;;;;;;;7421191;19;20129;-96
2023/07/01 15:59:10;;;;;;;0.43;0.43;;;;;;;;;;7420143;19;20149;-94
2023/07/01 16:01:39;;;;;;;0.38;0.38;;;;;;;;;;7418896;19;20137;-94
2023/07/01 16:04:06;;;;;;;0.98;0.98;;;;;;;;;;7420831;19;20150;-94
2023/07/01 16:06:33;;;;;;;1.42;0.88;;;;;;;;;;7416648;19;20239;-95
2023/07/01 16:08:59;;;;;;;0.40;0.40;;;;;;;;;;7419307;19;20160;-95
2023/07/01 16:11:31;;;;;;;0.45;0.45;;;;;;;;;;7414537;19;20926;-93
2023/07/01 16:14:01;;;;;;;0.40;0.40;;;;;;;;;;7404311;19;20152;-93
2023/07/01 16:16:28;;;;;;;0.30;0.30;;;;;;;;;;7399091;19;20141;-94
2023/07/01 16:19:11;;;;;;;0.55;0.55;;;;;;;;;;7401854;19;20141;-94
2023/07/01 16:21:38;;;;;;;0.50;0.50;;;;;;;;;;7402408;19;20137;-93
2023/07/01 16:24:31;;;;;;;0.68;0.68;;;;;;;;;;7392707;19;20145;-93
2023/07/01 16:26:58;;;;;;;0.40;0.40;;;;;;;;;;7393606;19;20186;-93
2023/07/01 16:29:30;;;;;;;0.60;0.60;;;;;;;;;;7406790;19;20137;-94
2023/07/01 16:31:56;;;;;;;0.70;0.70;;;;;;;;;;7402178;19;20133;-93
2023/07/01 16:34:23;;;;;;;0.60;0.60;;;;;;;;;;7405622;19;20339;-96
2023/07/01 16:36:50;;;;;;;0.63;0.63;;;;;;;;;;7416679;19;20133;-96
2023/07/01 16:39:17;;;;;;;0.65;0.50;;;;;;;;;;7417129;19;20161;-95
2023/07/01 16:41:44;;;;;;;0.40;0.40;;;;;;;;;;7417702;19;20133;-95
2023/07/01 16:44:11;;;;;;;0.60;0.60;;;;;;;;;;7420175;19;20129;-96
2023/07/01 16:46:39;;;;;;;0.70;0.70;;;;;;;;;;7404166;19;20133;-93
2023/07/01 16:49:08;;;;;;;0.52;0.52;;;;;;;;;;7408593;19;20168;-95
2023/07/01 16:51:35;;;;;;;0.57;0.57;;;;;;;;;;7413075;19;20141;-95
2023/07/01 16:54:24;;;;;;;1.20;0.90;;;;;;;;;;7412797;19;20136;-96
2023/07/01 16:56:56;;;;;;;0.73;0.73;;;;;;;;;;7418902;19;20180;-95
2023/07/01 16:59:29;;;;;;;1.45;0.82;;;;;;;;;;7420164;19;20137;-95
2023/07/01 17:01:56;;;;;;;0.50;0.50;;;;;;;;;;7411224;19;20169;-94
2023/07/01 17:04:31;;;;;;;0.38;0.38;;;;;;;;;;7419289;19;20149;-92
2023/07/01 17:06:58;;;;;;;0.52;0.43;;;;;;;;;;7419034;19;20128;-94
2023/07/01 17:09:31;;;;;;;0.65;0.65;;;;;;;;;;7418967;19;20156;-92
2023/07/01 17:11:58;;;;;;;0.50;0.50;;;;;;;;;;7419264;19;20145;-92
2023/07/01 17:14:45;;;;;;;0.40;0.40;;;;;;;;;;7416919;19;20169;-94
2023/07/01 17:17:33;;;;;;;1.27;0.88;;;;;;;;;;7403008;19;20157;-95
2023/07/01 17:20:06;;;;;;;0.55;0.55;;;;;;;;;;7402153;19;20219;-93
2023/07/01 17:22:33;;;;;;;0.43;0.43;;;;;;;;;;7403138;19;20141;-92
2023/07/01 17:25:01;;;;;;;0.30;0.30;;;;;;;;;;7419040;19;20134;-94
2023/07/01 17:27:27;;;;;;;0.68;0.50;;;;;;;;;;7419204;19;20129;-92
2023/07/01 17:29:54;;;;;;;0.63;0.63;;;;;;;;;;7418779;19;20144;-95
2023/07/01 17:32:22;;;;;;;0.40;0.40;;;;;;;;;;7421175;19;20144;-94
2023/07/01 17:37:39;;;;;;;0.40;0.40;;;;;;;;;;7398329;19;20209;-93
2023/07/01 17:40:12;;;;;;;0.57;0.57;;;;;;;;;;7395124;19;20531;-90
2023/07/01 17:42:38;;;;;;;0.50;0.50;;;;;;;;;;7396420;19;20129;-89
2023/07/01 17:45:06;;;;;;;0.50;0.50;;;;;;;;;;7394493;19;20182;-88
2023/07/01 17:47:32;;;;;;;0.50;0.40;;;;;;;;;;7395385;19;20557;-91
2023/07/01 17:49:59;;;;;;;0.35;0.35;;;;;;;;;;7396269;19;20141;-90
2023/07/01 17:52:45;;;;;;;0.40;0.40;;;;;;;;;;7398160;19;20136;-88
2023/07/01 17:55:15;;;;;;;0.32;0.32;;;;;;;;;;7394593;19;20201;-90
2023/07/01 17:57:42;;;;;;;0.40;0.40;;;;;;;;;;7399619;19;20144;-90
2023/07/01 18:00:21;;;;;;;0.50;0.50;;;;;;;;;;7398392;19;20697;-88
2023/07/01 18:02:48;;;;;;;0.60;0.60;;;;;;;;;;7397999;19;20141;-87
2023/07/01 18:05:15;;;;;;;0.55;0.55;;;;;;;;;;7398814;19;20145;-90
2023/07/01 18:07:43;;;;;;;0.40;0.40;;;;;;;;;;7397140;19;20161;-88
2023/07/01 18:10:10;;;;;;;0.93;0.82;;;;;;;;;;7396529;19;20161;-89
2023/07/01 18:12:37;;;;;;;0.80;0.50;;;;;;;;;;7392916;19;20147;-87
2023/07/01 18:15:06;;;;;;;0.47;0.47;;;;;;;;;;7395540;19;20170;-89
2023/07/01 18:17:36;;;;;;;0.40;0.40;;;;;;;;;;7396720;19;20141;-88
2023/07/01 18:20:03;;;;;;;0.50;0.50;;;;;;;;;;7392874;19;20601;-86
2023/07/01 18:22:30;;;;;;;1.95;0.65;;;;;;;;;;7392590;19;20133;-89
2023/07/01 18:24:57;;;;;;;0.30;0.30;;;;;;;;;;7390345;19;20157;-89
2023/07/01 18:27:24;;;;;;;0.40;0.40;;;;;;;;;;7394238;19;20129;-88
2023/07/01 18:29:50;;;;;;;0.40;0.40;;;;;;;;;;7391750;19;20216;-89
2023/07/01 18:32:17;;;;;;;0.93;0.52;;;;;;;;;;7394293;19;20689;-88
2023/07/01 18:34:43;;;;;;;0.60;0.60;;;;;;;;;;7395464;19;20605;-90
2023/07/01 18:37:10;;;;;;;0.40;0.40;;;;;;;;;;7396027;19;20143;-90